sensor_id;sensor_type;location;lat;lon;timestamp;pressure;altitude;pressure_sealevel;temperature;humidity
19751;BME280;4663;49.120;9.730;2022-08-19T00:01:30;97521.00;;;17.37;81.25
19751;BME280;4663;49.120;9.730;2022-08-19T00:03:58;97516.63;;;17.36;80.94
19751;BME280;4663;49.120;9.730;2022-08-19T00:06:24;97517.91;;;17.45;80.84
19751;BME280;4663;49.120;9.730;2022-08-19T00:08:49;97513.03;;;17.47;80.69
19751;BME280;4663;49.120;9.730;2022-08-19T00:11:16;97511.16;;;17.36;80.84
19751;BME280;4663;49.120;9.730;2022-08-19T00:13:42;97509.19;;;17.31;81.67
19751;BME280;4663;49.120;9.730;2022-08-19T00:16:07;97516.63;;;17.36;81.41
19751;BME280;4663;49.120;9.730;2022-08-19T00:18:33;97505.16;;;17.22;81.65
19751;BME280;4663;49.120;9.730;2022-08-19T00:20:59;97517.84;;;17.28;81.97
19751;BME280;4663;49.120;9.730;2022-08-19T00:23:26;97530.72;;;17.32;81.46
19751;BME280;4663;49.120;9.730;2022-08-19T00:25:52;97542.56;;;17.38;80.96
19751;BME280;4663;49.120;9.730;2022-08-19T00:28:18;97536.88;;;17.40;81.72
19751;BME280;4663;49.120;9.730;2022-08-19T00:30:43;97544.88;;;17.29;81.81
19751;BME280;4663;49.120;9.730;2022-08-19T00:33:09;97551.00;;;17.37;82.07
19751;BME280;4663;49.120;9.730;2022-08-19T00:35:35;97543.56;;;17.32;81.13
19751;BME280;4663;49.120;9.730;2022-08-19T00:38:03;97534.78;;;17.30;81.56
19751;BME280;4663;49.120;9.730;2022-08-19T00:40:30;97528.91;;;17.21;82.80
19751;BME280;4663;49.120;9.730;2022-08-19T00:42:56;97531.25;;;17.29;81.81
19751;BME280;4663;49.120;9.730;2022-08-19T00:45:24;97531.56;;;17.33;82.11
19751;BME280;4663;49.120;9.730;2022-08-19T00:47:49;97524.50;;;17.20;82.58
19751;BME280;4663;49.120;9.730;2022-08-19T00:50:17;97507.19;;;17.26;81.56
19751;BME280;4663;49.120;9.730;2022-08-19T00:52:47;97500.25;;;17.36;81.52
19751;BME280;4663;49.120;9.730;2022-08-19T00:55:24;97493.78;;;17.25;81.44
19751;BME280;4663;49.120;9.730;2022-08-19T00:57:54;97496.75;;;17.23;82.20
19751;BME280;4663;49.120;9.730;2022-08-19T01:00:22;97496.06;;;17.16;83.01
19751;BME280;4663;49.120;9.730;2022-08-19T01:02:48;97514.66;;;17.19;82.43
19751;BME280;4663;49.120;9.730;2022-08-19T01:05:20;97520.03;;;17.14;82.42
19751;BME280;4663;49.120;9.730;2022-08-19T01:07:47;97528.06;;;17.20;81.95
19751;BME280;4663;49.120;9.730;2022-08-19T01:10:16;97531.97;;;17.13;81.72
19751;BME280;4663;49.120;9.730;2022-08-19T01:12:44;97538.09;;;17.32;82.03
19751;BME280;4663;49.120;9.730;2022-08-19T01:15:14;97535.63;;;17.30;80.31
19751;BME280;4663;49.120;9.730;2022-08-19T01:17:41;97546.28;;;17.32;81.28
19751;BME280;4663;49.120;9.730;2022-08-19T01:20:11;97547.94;;;17.33;80.89
19751;BME280;4663;49.120;9.730;2022-08-19T01:22:55;97545.84;;;17.23;81.26
19751;BME280;4663;49.120;9.730;2022-08-19T01:25:32;97532.91;;;17.18;81.77
19751;BME280;4663;49.120;9.730;2022-08-19T01:27:59;97526.53;;;17.13;82.17
19751;BME280;4663;49.120;9.730;2022-08-19T01:30:30;97521.56;;;17.10;82.03
19751;BME280;4663;49.120;9.730;2022-08-19T01:32:56;97530.44;;;16.93;82.66
19751;BME280;4663;49.120;9.730;2022-08-19T01:35:23;97517.69;;;16.81;83.05
19751;BME280;4663;49.120;9.730;2022-08-19T01:38:01;97519.69;;;16.98;82.71
19751;BME280;4663;49.120;9.730;2022-08-19T01:40:32;97513.38;;;16.98;82.40
19751;BME280;4663;49.120;9.730;2022-08-19T01:42:59;97517.75;;;17.11;81.76
19751;BME280;4663;49.120;9.730;2022-08-19T01:45:27;97513.84;;;17.06;81.61
19751;BME280;4663;49.120;9.730;2022-08-19T01:47:54;97506.72;;;17.17;81.58
19751;BME280;4663;49.120;9.730;2022-08-19T01:50:19;97512.78;;;17.07;81.67
19751;BME280;4663;49.120;9.730;2022-08-19T01:52:46;97514.41;;;17.08;82.05
19751;BME280;4663;49.120;9.730;2022-08-19T01:55:14;97515.31;;;16.97;82.56
19751;BME280;4663;49.120;9.730;2022-08-19T01:57:44;97520.09;;;17.07;81.89
19751;BME280;4663;49.120;9.730;2022-08-19T02:00:13;97517.66;;;17.05;81.75
19751;BME280;4663;49.120;9.730;2022-08-19T02:02:40;97515.72;;;17.06;81.19
19751;BME280;4663;49.120;9.730;2022-08-19T02:05:06;97511.84;;;17.02;81.75
19751;BME280;4663;49.120;9.730;2022-08-19T02:07:34;97516.47;;;17.01;82.18
19751;BME280;4663;49.120;9.730;2022-08-19T02:10:03;97512.19;;;17.05;82.08
19751;BME280;4663;49.120;9.730;2022-08-19T02:12:28;97515.31;;;16.97;82.26
19751;BME280;4663;49.120;9.730;2022-08-19T02:14:54;97516.94;;;16.98;82.01
19751;BME280;4663;49.120;9.730;2022-08-19T02:17:19;97514.31;;;17.03;81.57
19751;BME280;4663;49.120;9.730;2022-08-19T02:19:45;97522.41;;;16.98;81.54
19751;BME280;4663;49.120;9.730;2022-08-19T02:22:10;97526.53;;;16.89;81.67
19751;BME280;4663;49.120;9.730;2022-08-19T02:24:36;97542.31;;;16.75;82.93
19751;BME280;4663;49.120;9.730;2022-08-19T02:27:01;97535.94;;;16.81;82.19
19751;BME280;4663;49.120;9.730;2022-08-19T02:29:27;97533.69;;;16.78;82.01
19751;BME280;4663;49.120;9.730;2022-08-19T02:31:52;97534.88;;;16.82;82.02
19751;BME280;4663;49.120;9.730;2022-08-19T02:34:18;97543.78;;;16.77;82.51
19751;BME280;4663;49.120;9.730;2022-08-19T02:36:43;97555.84;;;16.81;82.51
19751;BME280;4663;49.120;9.730;2022-08-19T02:39:09;97557.75;;;16.81;82.27
19751;BME280;4663;49.120;9.730;2022-08-19T02:41:35;97562.47;;;16.86;81.97
19751;BME280;4663;49.120;9.730;2022-08-19T02:44:02;97557.22;;;16.96;81.38
19751;BME280;4663;49.120;9.730;2022-08-19T02:46:31;97563.16;;;16.93;81.39
19751;BME280;4663;49.120;9.730;2022-08-19T02:49:00;97550.50;;;16.87;82.24
19751;BME280;4663;49.120;9.730;2022-08-19T02:51:29;97548.00;;;16.97;81.38
19751;BME280;4663;49.120;9.730;2022-08-19T02:53:55;97538.91;;;16.79;81.83
19751;BME280;4663;49.120;9.730;2022-08-19T02:56:21;97548.00;;;16.85;81.61
19751;BME280;4663;49.120;9.730;2022-08-19T02:58:47;97549.66;;;16.86;81.76
19751;BME280;4663;49.120;9.730;2022-08-19T03:01:40;97552.84;;;16.95;81.51
19751;BME280;4663;49.120;9.730;2022-08-19T03:04:07;97545.28;;;16.97;81.34
19751;BME280;4663;49.120;9.730;2022-08-19T03:06:36;97549.06;;;16.96;81.16
19751;BME280;4663;49.120;9.730;2022-08-19T03:09:02;97541.72;;;16.97;81.06
19751;BME280;4663;49.120;9.730;2022-08-19T03:11:30;97539.13;;;16.90;81.65
19751;BME280;4663;49.120;9.730;2022-08-19T03:13:56;97545.63;;;16.89;82.08
19751;BME280;4663;49.120;9.730;2022-08-19T03:16:24;97545.63;;;16.89;82.75
19751;BME280;4663;49.120;9.730;2022-08-19T03:18:51;97543.28;;;16.80;82.44
19751;BME280;4663;49.120;9.730;2022-08-19T03:21:18;97538.28;;;16.89;81.73
19751;BME280;4663;49.120;9.730;2022-08-19T03:23:45;97548.81;;;17.10;81.06
19751;BME280;4663;49.120;9.730;2022-08-19T03:26:10;97555.69;;;17.00;81.42
19751;BME280;4663;49.120;9.730;2022-08-19T03:28:36;97532.59;;;16.79;81.50
19751;BME280;4663;49.120;9.730;2022-08-19T03:31:05;97536.53;;;16.71;81.66
19751;BME280;4663;49.120;9.730;2022-08-19T03:33:33;97534.88;;;16.58;82.71
19751;BME280;4663;49.120;9.730;2022-08-19T03:36:00;97540.53;;;16.80;81.73
19751;BME280;4663;49.120;9.730;2022-08-19T03:38:26;97531.66;;;16.73;81.53
19751;BME280;4663;49.120;9.730;2022-08-19T03:40:52;97530.97;;;16.66;81.90
19751;BME280;4663;49.120;9.730;2022-08-19T03:43:17;97529.81;;;16.62;82.22
19751;BME280;4663;49.120;9.730;2022-08-19T03:45:43;97523.28;;;16.63;82.38
19751;BME280;4663;49.120;9.730;2022-08-19T03:48:08;97519.00;;;16.55;82.26
19751;BME280;4663;49.120;9.730;2022-08-19T03:50:38;97521.63;;;16.62;82.66
19751;BME280;4663;49.120;9.730;2022-08-19T03:53:04;97527.78;;;16.57;82.85
19751;BME280;4663;49.120;9.730;2022-08-19T03:55:29;97532.03;;;16.65;81.96
19751;BME280;4663;49.120;9.730;2022-08-19T03:57:55;97546.38;;;16.48;82.90
19751;BME280;4663;49.120;9.730;2022-08-19T04:00:21;97540.09;;;16.72;81.49
19751;BME280;4663;49.120;9.730;2022-08-19T04:02:47;97542.56;;;16.73;80.87
19751;BME280;4663;49.120;9.730;2022-08-19T04:05:12;97546.47;;;16.89;80.89
19751;BME280;4663;49.120;9.730;2022-08-19T04:07:39;97552.25;;;16.93;81.32
19751;BME280;4663;49.120;9.730;2022-08-19T04:10:05;97564.25;;;16.80;81.12
19751;BME280;4663;49.120;9.730;2022-08-19T04:12:31;97566.63;;;16.88;81.81
19751;BME280;4663;49.120;9.730;2022-08-19T04:14:57;97567.59;;;16.70;82.84
19751;BME280;4663;49.120;9.730;2022-08-19T04:17:23;97561.53;;;16.56;82.79
19751;BME280;4663;49.120;9.730;2022-08-19T04:19:49;97562.25;;;16.51;83.54
19751;BME280;4663;49.120;9.730;2022-08-19T04:22:14;97562.94;;;16.83;82.58
19751;BME280;4663;49.120;9.730;2022-08-19T04:24:40;97565.44;;;16.84;81.74
19751;BME280;4663;49.120;9.730;2022-08-19T04:27:05;97563.53;;;16.61;82.98
19751;BME280;4663;49.120;9.730;2022-08-19T04:29:31;97558.22;;;16.66;82.82
19751;BME280;4663;49.120;9.730;2022-08-19T04:31:58;97557.03;;;16.62;82.92
19751;BME280;4663;49.120;9.730;2022-08-19T04:34:26;97541.38;;;16.69;82.12
19751;BME280;4663;49.120;9.730;2022-08-19T04:36:53;97546.97;;;16.74;82.40
19751;BME280;4663;49.120;9.730;2022-08-19T04:39:24;97533.78;;;16.83;81.55
19751;BME280;4663;49.120;9.730;2022-08-19T04:42:10;97545.06;;;16.75;81.84
19751;BME280;4663;49.120;9.730;2022-08-19T04:44:54;97537.44;;;16.89;81.85
19751;BME280;4663;49.120;9.730;2022-08-19T04:47:19;97544.81;;;16.88;81.81
19751;BME280;4663;49.120;9.730;2022-08-19T04:49:45;97544.25;;;16.74;82.62
19751;BME280;4663;49.120;9.730;2022-08-19T04:52:10;97535.56;;;16.89;82.53
19751;BME280;4663;49.120;9.730;2022-08-19T04:54:35;97544.06;;;16.93;82.08
19751;BME280;4663;49.120;9.730;2022-08-19T04:57:01;97549.19;;;16.89;82.24
19751;BME280;4663;49.120;9.730;2022-08-19T04:59:26;97550.84;;;16.90;81.90
19751;BME280;4663;49.120;9.730;2022-08-19T05:01:52;97556.19;;;16.85;82.02
19751;BME280;4663;49.120;9.730;2022-08-19T05:04:19;97559.16;;;16.84;82.32
19751;BME280;4663;49.120;9.730;2022-08-19T05:06:47;97561.31;;;16.81;82.21
19751;BME280;4663;49.120;9.730;2022-08-19T05:09:13;97557.03;;;16.86;81.99
19751;BME280;4663;49.120;9.730;2022-08-19T05:11:39;97555.47;;;16.78;82.68
19751;BME280;4663;49.120;9.730;2022-08-19T05:14:08;97569.47;;;16.81;83.36
19751;BME280;4663;49.120;9.730;2022-08-19T05:16:33;97571.13;;;16.83;83.08
19751;BME280;4663;49.120;9.730;2022-08-19T05:18:59;97583.78;;;16.65;83.33
19751;BME280;4663;49.120;9.730;2022-08-19T05:21:44;97592.81;;;16.77;82.96
19751;BME280;4663;49.120;9.730;2022-08-19T05:24:29;97599.91;;;16.78;82.76
19751;BME280;4663;49.120;9.730;2022-08-19T05:26:55;97597.66;;;16.87;82.79
19751;BME280;4663;49.120;9.730;2022-08-19T05:29:25;97608.47;;;16.27;83.97
19751;BME280;4663;49.120;9.730;2022-08-19T05:31:52;97618.41;;;16.22;83.98
19751;BME280;4663;49.120;9.730;2022-08-19T05:34:19;97615.19;;;16.55;83.42
19751;BME280;4663;49.120;9.730;2022-08-19T05:36:50;97621.13;;;16.76;83.14
19751;BME280;4663;49.120;9.730;2022-08-19T05:39:20;97623.84;;;16.88;82.90
19751;BME280;4663;49.120;9.730;2022-08-19T05:41:48;97631.91;;;16.95;82.55
19751;BME280;4663;49.120;9.730;2022-08-19T05:44:15;97634.03;;;16.93;82.42
19751;BME280;4663;49.120;9.730;2022-08-19T05:46:43;97634.59;;;16.47;83.22
19751;BME280;4663;49.120;9.730;2022-08-19T05:49:12;97634.50;;;16.66;82.84
19751;BME280;4663;49.120;9.730;2022-08-19T05:51:38;97638.06;;;16.78;82.58
19751;BME280;4663;49.120;9.730;2022-08-19T05:54:04;97636.88;;;16.98;81.61
19751;BME280;4663;49.120;9.730;2022-08-19T05:56:31;97638.78;;;16.98;81.79
19751;BME280;4663;49.120;9.730;2022-08-19T05:58:57;97643.50;;;16.90;81.85
19751;BME280;4663;49.120;9.730;2022-08-19T06:01:24;97639.00;;;16.96;82.22
19751;BME280;4663;49.120;9.730;2022-08-19T06:03:50;97645.50;;;17.07;82.13
19751;BME280;4663;49.120;9.730;2022-08-19T06:06:16;97651.94;;;17.13;82.07
19751;BME280;4663;49.120;9.730;2022-08-19T06:08:41;97655.13;;;17.10;82.28
19751;BME280;4663;49.120;9.730;2022-08-19T06:11:13;97662.72;;;17.07;83.03
19751;BME280;4663;49.120;9.730;2022-08-19T06:13:39;97654.81;;;17.18;82.27
19751;BME280;4663;49.120;9.730;2022-08-19T06:16:04;97651.69;;;17.14;82.58
19751;BME280;4663;49.120;9.730;2022-08-19T06:18:30;97652.06;;;16.94;82.58
19751;BME280;4663;49.120;9.730;2022-08-19T06:20:55;97658.31;;;16.71;82.74
19751;BME280;4663;49.120;9.730;2022-08-19T06:23:21;97658.81;;;16.67;83.10
19751;BME280;4663;49.120;9.730;2022-08-19T06:25:46;97652.06;;;16.94;83.05
19751;BME280;4663;49.120;9.730;2022-08-19T06:28:12;97645.28;;;17.08;82.21
19751;BME280;4663;49.120;9.730;2022-08-19T06:30:38;97643.75;;;17.13;82.29
19751;BME280;4663;49.120;9.730;2022-08-19T06:33:03;97640.78;;;17.14;83.14
19751;BME280;4663;49.120;9.730;2022-08-19T06:35:28;97639.84;;;16.97;81.89
19751;BME280;4663;49.120;9.730;2022-08-19T06:37:55;97631.78;;;17.26;82.20
19751;BME280;4663;49.120;9.730;2022-08-19T06:40:20;97629.84;;;17.38;81.19
19751;BME280;4663;49.120;9.730;2022-08-19T06:42:46;97626.88;;;17.40;81.54
19751;BME280;4663;49.120;9.730;2022-08-19T06:45:11;97615.78;;;17.05;81.69
19751;BME280;4663;49.120;9.730;2022-08-19T06:47:36;97622.19;;;17.23;82.10
19751;BME280;4663;49.120;9.730;2022-08-19T06:50:02;97628.75;;;17.51;81.44
19751;BME280;4663;49.120;9.730;2022-08-19T06:52:31;97630.50;;;17.16;81.84
19751;BME280;4663;49.120;9.730;2022-08-19T06:54:57;97632.81;;;17.37;82.00
19751;BME280;4663;49.120;9.730;2022-08-19T06:57:26;97630.91;;;17.49;81.50
19751;BME280;4663;49.120;9.730;2022-08-19T06:59:51;97643.97;;;17.76;80.54
19751;BME280;4663;49.120;9.730;2022-08-19T07:02:17;97641.31;;;17.64;80.78
19751;BME280;4663;49.120;9.730;2022-08-19T07:04:44;97646.72;;;17.76;80.58
19751;BME280;4663;49.120;9.730;2022-08-19T07:07:11;97650.34;;;17.65;80.65
19751;BME280;4663;49.120;9.730;2022-08-19T07:09:39;97650.91;;;17.67;80.64
19751;BME280;4663;49.120;9.730;2022-08-19T07:12:07;97655.28;;;17.68;80.81
19751;BME280;4663;49.120;9.730;2022-08-19T07:14:33;97665.81;;;17.76;81.08
19751;BME280;4663;49.120;9.730;2022-08-19T07:17:02;97666.28;;;17.20;81.60
19751;BME280;4663;49.120;9.730;2022-08-19T07:19:28;97656.69;;;16.81;82.64
19751;BME280;4663;49.120;9.730;2022-08-19T07:21:54;97674.03;;;17.11;82.38
19751;BME280;4663;49.120;9.730;2022-08-19T07:24:22;97656.19;;;16.85;83.54
19751;BME280;4663;49.120;9.730;2022-08-19T07:26:51;97655.81;;;16.69;84.20
19751;BME280;4663;49.120;9.730;2022-08-19T07:29:18;97655.31;;;16.48;85.08
19751;BME280;4663;49.120;9.730;2022-08-19T07:31:44;97662.34;;;16.92;83.17
19751;BME280;4663;49.120;9.730;2022-08-19T07:34:11;97672.19;;;16.93;83.17
19751;BME280;4663;49.120;9.730;2022-08-19T07:36:40;97676.56;;;17.06;82.83
19751;BME280;4663;49.120;9.730;2022-08-19T07:39:20;97677.16;;;16.96;83.36
19751;BME280;4663;49.120;9.730;2022-08-19T07:41:46;97678.41;;;17.12;82.90
19751;BME280;4663;49.120;9.730;2022-08-19T07:44:13;97677.31;;;17.25;82.57
19751;BME280;4663;49.120;9.730;2022-08-19T07:46:42;97672.44;;;17.03;82.74
19751;BME280;4663;49.120;9.730;2022-08-19T07:49:10;97677.56;;;17.12;82.93
19751;BME280;4663;49.120;9.730;2022-08-19T07:51:41;97673.84;;;17.42;82.25
19751;BME280;4663;49.120;9.730;2022-08-19T07:54:07;97673.63;;;16.96;83.05
19751;BME280;4663;49.120;9.730;2022-08-19T07:56:32;97673.13;;;16.63;85.04
19751;BME280;4663;49.120;9.730;2022-08-19T07:58:58;97680.03;;;17.01;83.40
19751;BME280;4663;49.120;9.730;2022-08-19T08:01:25;97685.00;;;17.28;82.82
19751;BME280;4663;49.120;9.730;2022-08-19T08:03:55;97690.00;;;17.31;82.54
19751;BME280;4663;49.120;9.730;2022-08-19T08:06:40;97702.53;;;17.56;81.56
19751;BME280;4663;49.120;9.730;2022-08-19T08:09:28;97702.31;;;17.34;81.88
19751;BME280;4663;49.120;9.730;2022-08-19T08:11:59;97693.41;;;17.27;82.17
19751;BME280;4663;49.120;9.730;2022-08-19T08:14:35;97701.34;;;16.92;83.41
19751;BME280;4663;49.120;9.730;2022-08-19T08:17:02;97697.06;;;17.08;82.96
19751;BME280;4663;49.120;9.730;2022-08-19T08:19:28;97703.69;;;16.89;83.45
19751;BME280;4663;49.120;9.730;2022-08-19T08:21:57;97698.53;;;17.23;82.77
19751;BME280;4663;49.120;9.730;2022-08-19T08:24:23;97692.13;;;17.53;81.81
19751;BME280;4663;49.120;9.730;2022-08-19T08:26:49;97681.34;;;17.35;81.80
19751;BME280;4663;49.120;9.730;2022-08-19T08:29:14;97696.28;;;17.32;81.84
19751;BME280;4663;49.120;9.730;2022-08-19T08:31:42;97698.88;;;17.27;82.29
19751;BME280;4663;49.120;9.730;2022-08-19T08:34:08;97702.34;;;17.22;82.62
19751;BME280;4663;49.120;9.730;2022-08-19T08:36:39;97697.91;;;16.85;83.70
19751;BME280;4663;49.120;9.730;2022-08-19T08:39:11;97688.47;;;17.24;82.88
19751;BME280;4663;49.120;9.730;2022-08-19T08:44:22;97688.88;;;17.68;81.73
19751;BME280;4663;49.120;9.730;2022-08-19T08:46:54;97680.69;;;17.56;81.90
19751;BME280;4663;49.120;9.730;2022-08-19T08:49:28;97680.38;;;17.17;83.62
19751;BME280;4663;49.120;9.730;2022-08-19T08:54:43;97685.03;;;17.81;81.26
19751;BME280;4663;49.120;9.730;2022-08-19T08:57:32;97699.75;;;17.80;81.59
19751;BME280;4663;49.120;9.730;2022-08-19T09:00:02;97687.81;;;18.10;80.74
19751;BME280;4663;49.120;9.730;2022-08-19T09:02:30;97693.66;;;18.02;81.23
19751;BME280;4663;49.120;9.730;2022-08-19T09:04:56;97697.66;;;18.12;80.66
19751;BME280;4663;49.120;9.730;2022-08-19T09:10:04;97692.19;;;18.12;80.76
19751;BME280;4663;49.120;9.730;2022-08-19T09:15:08;97698.97;;;18.55;79.48
19751;BME280;4663;49.120;9.730;2022-08-19T09:17:34;97691.88;;;18.54;79.67
19751;BME280;4663;49.120;9.730;2022-08-19T09:22:34;97700.06;;;17.96;81.52
19751;BME280;4663;49.120;9.730;2022-08-19T09:25:01;97698.50;;;17.59;82.69
19751;BME280;4663;49.120;9.730;2022-08-19T09:27:27;97702.97;;;17.77;81.94
19751;BME280;4663;49.120;9.730;2022-08-19T09:29:53;97708.44;;;17.65;82.41
19751;BME280;4663;49.120;9.730;2022-08-19T09:32:20;97702.47;;;17.92;81.75
19751;BME280;4663;49.120;9.730;2022-08-19T09:34:46;97711.91;;;18.14;81.48
19751;BME280;4663;49.120;9.730;2022-08-19T09:37:11;97713.97;;;17.94;81.54
19751;BME280;4663;49.120;9.730;2022-08-19T09:39:37;97717.91;;;18.28;80.62
19751;BME280;4663;49.120;9.730;2022-08-19T09:42:03;97708.94;;;18.15;81.20
19751;BME280;4663;49.120;9.730;2022-08-19T09:44:29;97707.88;;;18.04;81.42
19751;BME280;4663;49.120;9.730;2022-08-19T09:46:55;97712.91;;;17.83;82.45
19751;BME280;4663;49.120;9.730;2022-08-19T09:49:21;97706.38;;;18.26;81.37
19751;BME280;4663;49.120;9.730;2022-08-19T09:51:50;97713.41;;;18.51;80.46
19751;BME280;4663;49.120;9.730;2022-08-19T09:54:16;97712.63;;;18.55;79.94
19751;BME280;4663;49.120;9.730;2022-08-19T09:56:41;97710.06;;;18.60;80.22
19751;BME280;4663;49.120;9.730;2022-08-19T09:59:06;97709.50;;;18.46;80.09
19751;BME280;4663;49.120;9.730;2022-08-19T10:01:32;97704.91;;;18.64;80.03
19751;BME280;4663;49.120;9.730;2022-08-19T10:04:00;97706.22;;;18.61;79.82
19751;BME280;4663;49.120;9.730;2022-08-19T10:06:28;97707.72;;;18.86;79.62
19751;BME280;4663;49.120;9.730;2022-08-19T10:08:59;97705.09;;;18.74;79.20
19751;BME280;4663;49.120;9.730;2022-08-19T10:11:25;97706.31;;;18.67;79.79
19751;BME280;4663;49.120;9.730;2022-08-19T10:13:51;97705.34;;;18.44;80.49
19751;BME280;4663;49.120;9.730;2022-08-19T10:16:20;97702.19;;;18.52;80.38
19751;BME280;4663;49.120;9.730;2022-08-19T10:18:50;97703.59;;;18.84;80.09
19751;BME280;4663;49.120;9.730;2022-08-19T10:21:22;97707.25;;;19.07;79.51
19751;BME280;4663;49.120;9.730;2022-08-19T10:23:50;97694.47;;;18.95;79.50
19751;BME280;4663;49.120;9.730;2022-08-19T10:26:21;97699.53;;;18.86;79.76
19751;BME280;4663;49.120;9.730;2022-08-19T10:28:48;97695.41;;;18.38;80.69
19751;BME280;4663;49.120;9.730;2022-08-19T10:31:17;97688.28;;;18.54;80.74
19751;BME280;4663;49.120;9.730;2022-08-19T10:33:45;97696.25;;;18.55;80.45
19751;BME280;4663;49.120;9.730;2022-08-19T10:36:16;97697.69;;;18.75;80.32
19751;BME280;4663;49.120;9.730;2022-08-19T10:38:43;97694.59;;;18.54;80.92
19751;BME280;4663;49.120;9.730;2022-08-19T10:41:23;97696.84;;;18.28;80.98
19751;BME280;4663;49.120;9.730;2022-08-19T10:43:59;97688.69;;;18.57;80.82
19751;BME280;4663;49.120;9.730;2022-08-19T10:46:26;97693.91;;;18.76;80.10
19751;BME280;4663;49.120;9.730;2022-08-19T10:48:53;97685.78;;;18.81;79.90
19751;BME280;4663;49.120;9.730;2022-08-19T10:51:20;97697.03;;;18.85;80.07
19751;BME280;4663;49.120;9.730;2022-08-19T10:54:04;97686.63;;;18.65;81.03
19751;BME280;4663;49.120;9.730;2022-08-19T10:56:30;97698.22;;;18.43;81.49
19751;BME280;4663;49.120;9.730;2022-08-19T10:59:16;97698.22;;;18.43;81.38
19751;BME280;4663;49.120;9.730;2022-08-19T11:01:43;97690.59;;;18.74;80.44
19751;BME280;4663;49.120;9.730;2022-08-19T11:04:09;97687.09;;;18.96;80.31
19751;BME280;4663;49.120;9.730;2022-08-19T11:06:37;97696.28;;;18.72;80.42
19751;BME280;4663;49.120;9.730;2022-08-19T11:09:04;97686.63;;;18.65;80.98
19751;BME280;4663;49.120;9.730;2022-08-19T11:11:30;97691.16;;;18.93;81.11
19751;BME280;4663;49.120;9.730;2022-08-19T11:13:57;97689.91;;;19.01;81.55
19751;BME280;4663;49.120;9.730;2022-08-19T11:16:26;97692.16;;;19.04;83.20
19751;BME280;4663;49.120;9.730;2022-08-19T11:18:54;97698.13;;;19.01;84.38
19751;BME280;4663;49.120;9.730;2022-08-19T11:21:34;97696.47;;;19.00;85.89
19751;BME280;4663;49.120;9.730;2022-08-19T11:24:03;97698.72;;;18.69;90.03
19751;BME280;4663;49.120;9.730;2022-08-19T11:26:31;97693.06;;;18.29;94.10
19751;BME280;4663;49.120;9.730;2022-08-19T11:28:58;97692.78;;;18.14;95.85
19751;BME280;4663;49.120;9.730;2022-08-19T11:31:27;97690.63;;;18.16;96.81
19751;BME280;4663;49.120;9.730;2022-08-19T11:33:53;97687.47;;;18.07;97.41
19751;BME280;4663;49.120;9.730;2022-08-19T11:36:20;97688.88;;;17.56;99.75
19751;BME280;4663;49.120;9.730;2022-08-19T11:38:47;97689.28;;;17.24;100.00
19751;BME280;4663;49.120;9.730;2022-08-19T11:41:14;97697.09;;;17.32;100.00
19751;BME280;4663;49.120;9.730;2022-08-19T11:43:40;97699.25;;;17.30;100.00
19751;BME280;4663;49.120;9.730;2022-08-19T11:46:11;97695.22;;;17.33;100.00
19751;BME280;4663;49.120;9.730;2022-08-19T11:48:39;97705.19;;;17.27;100.00
19751;BME280;4663;49.120;9.730;2022-08-19T11:51:10;97687.13;;;17.38;100.00
19751;BME280;4663;49.120;9.730;2022-08-19T11:53:36;97702.81;;;17.31;100.00
19751;BME280;4663;49.120;9.730;2022-08-19T11:56:04;97701.56;;;17.63;100.00
19751;BME280;4663;49.120;9.730;2022-08-19T11:58:30;97704.44;;;17.44;100.00
19751;BME280;4663;49.120;9.730;2022-08-19T12:00:55;97701.34;;;17.52;99.63
19751;BME280;4663;49.120;9.730;2022-08-19T12:03:21;97713.22;;;17.46;100.00
19751;BME280;4663;49.120;9.730;2022-08-19T12:05:47;97708.94;;;17.50;99.47
19751;BME280;4663;49.120;9.730;2022-08-19T12:08:13;97707.06;;;17.39;99.27
19751;BME280;4663;49.120;9.730;2022-08-19T12:10:40;97714.63;;;17.37;99.43
19751;BME280;4663;49.120;9.730;2022-08-19T12:13:08;97713.25;;;17.22;100.00
19751;BME280;4663;49.120;9.730;2022-08-19T12:15:37;97711.06;;;17.48;98.98
19751;BME280;4663;49.120;9.730;2022-08-19T12:18:04;97714.88;;;17.47;100.00
19751;BME280;4663;49.120;9.730;2022-08-19T12:20:30;97710.13;;;17.54;99.33
19751;BME280;4663;49.120;9.730;2022-08-19T12:22:55;97709.16;;;17.61;98.36
19751;BME280;4663;49.120;9.730;2022-08-19T12:25:21;97706.69;;;17.47;100.00
19751;BME280;4663;49.120;9.730;2022-08-19T12:27:46;97710.38;;;17.41;100.00
19751;BME280;4663;49.120;9.730;2022-08-19T12:30:13;97706.94;;;17.45;100.00
19751;BME280;4663;49.120;9.730;2022-08-19T12:32:39;97712.84;;;17.42;100.00
19751;BME280;4663;49.120;9.730;2022-08-19T12:35:07;97711.59;;;17.45;99.77
19751;BME280;4663;49.120;9.730;2022-08-19T12:37:34;97715.34;;;17.44;100.00
19751;BME280;4663;49.120;9.730;2022-08-19T12:39:59;97713.47;;;17.44;100.00
19751;BME280;4663;49.120;9.730;2022-08-19T12:42:25;97703.50;;;17.14;100.00
19751;BME280;4663;49.120;9.730;2022-08-19T12:44:50;97704.69;;;17.30;100.00
19751;BME280;4663;49.120;9.730;2022-08-19T12:47:17;97710.28;;;17.24;100.00
19751;BME280;4663;49.120;9.730;2022-08-19T12:49:43;97711.44;;;17.04;100.00
19751;BME280;4663;49.120;9.730;2022-08-19T12:52:09;97709.91;;;17.20;100.00
19751;BME280;4663;49.120;9.730;2022-08-19T12:54:36;97715.59;;;17.06;100.00
19751;BME280;4663;49.120;9.730;2022-08-19T12:57:09;97727.78;;;17.04;100.00
19751;BME280;4663;49.120;9.730;2022-08-19T12:59:36;97726.41;;;17.13;100.00
19751;BME280;4663;49.120;9.730;2022-08-19T13:02:06;97722.81;;;17.13;100.00
19751;BME280;4663;49.120;9.730;2022-08-19T13:04:34;97722.19;;;16.99;100.00
19751;BME280;4663;49.120;9.730;2022-08-19T13:07:02;97721.72;;;16.90;100.00
19751;BME280;4663;49.120;9.730;2022-08-19T13:09:27;97718.81;;;17.15;100.00
19751;BME280;4663;49.120;9.730;2022-08-19T13:11:53;97723.53;;;17.08;100.00
19751;BME280;4663;49.120;9.730;2022-08-19T13:14:18;97730.31;;;17.17;100.00
19751;BME280;4663;49.120;9.730;2022-08-19T13:16:44;97719.88;;;17.26;100.00
19751;BME280;4663;49.120;9.730;2022-08-19T13:19:09;97726.03;;;17.10;100.00
19751;BME280;4663;49.120;9.730;2022-08-19T13:21:37;97723.84;;;16.88;100.00
19751;BME280;4663;49.120;9.730;2022-08-19T13:24:03;97722.69;;;17.07;100.00
19751;BME280;4663;49.120;9.730;2022-08-19T13:26:28;97732.41;;;16.91;100.00